sensor_id;sensor_type;location;lat;lon;timestamp;P1;durP1;ratioP1;P2;durP2;ratioP2
36445;SDS011;22472;50.848;-1.216;2022-10-16T00:01:04;20.10;;;2.65;;
36445;SDS011;22472;50.848;-1.216;2022-10-16T00:03:32;20.10;;;2.67;;
36445;SDS011;22472;50.848;-1.216;2022-10-16T00:05:59;21.98;;;2.90;;
36445;SDS011;22472;50.848;-1.216;2022-10-16T00:08:27;19.92;;;2.78;;
36445;SDS011;22472;50.848;-1.216;2022-10-16T00:10:58;19.83;;;3.05;;
36445;SDS011;22472;50.848;-1.216;2022-10-16T00:13:27;21.60;;;2.33;;
36445;SDS011;22472;50.848;-1.216;2022-10-16T00:15:55;18.02;;;2.25;;
36445;SDS011;22472;50.848;-1.216;2022-10-16T00:18:26;20.58;;;3.13;;
36445;SDS011;22472;50.848;-1.216;2022-10-16T00:20:53;23.83;;;3.28;;
36445;SDS011;22472;50.848;-1.216;2022-10-16T00:23:21;24.75;;;2.92;;
36445;SDS011;22472;50.848;-1.216;2022-10-16T00:25:55;24.52;;;3.35;;
36445;SDS011;22472;50.848;-1.216;2022-10-16T00:28:23;20.55;;;2.78;;
36445;SDS011;22472;50.848;-1.216;2022-10-16T00:30:52;15.82;;;2.40;;
36445;SDS011;22472;50.848;-1.216;2022-10-16T00:33:19;19.23;;;2.85;;
36445;SDS011;22472;50.848;-1.216;2022-10-16T00:35:47;20.15;;;3.00;;
36445;SDS011;22472;50.848;-1.216;2022-10-16T00:38:14;18.75;;;2.28;;
36445;SDS011;22472;50.848;-1.216;2022-10-16T00:40:42;18.85;;;2.70;;
36445;SDS011;22472;50.848;-1.216;2022-10-16T00:43:12;21.17;;;2.72;;
36445;SDS011;22472;50.848;-1.216;2022-10-16T00:45:40;18.17;;;2.58;;
36445;SDS011;22472;50.848;-1.216;2022-10-16T00:48:11;23.08;;;3.42;;
36445;SDS011;22472;50.848;-1.216;2022-10-16T00:50:40;21.88;;;3.08;;
36445;SDS011;22472;50.848;-1.216;2022-10-16T00:53:08;20.65;;;2.97;;
36445;SDS011;22472;50.848;-1.216;2022-10-16T00:55:38;13.23;;;1.48;;
36445;SDS011;22472;50.848;-1.216;2022-10-16T00:58:05;15.07;;;2.15;;
36445;SDS011;22472;50.848;-1.216;2022-10-16T01:00:32;12.65;;;1.60;;
36445;SDS011;22472;50.848;-1.216;2022-10-16T01:03:00;11.80;;;1.60;;
36445;SDS011;22472;50.848;-1.216;2022-10-16T01:05:32;11.95;;;1.35;;
36445;SDS011;22472;50.848;-1.216;2022-10-16T01:08:06;8.63;;;1.10;;
36445;SDS011;22472;50.848;-1.216;2022-10-16T01:10:39;12.02;;;1.10;;
36445;SDS011;22472;50.848;-1.216;2022-10-16T01:13:11;8.43;;;0.70;;
36445;SDS011;22472;50.848;-1.216;2022-10-16T01:15:45;14.00;;;0.90;;
36445;SDS011;22472;50.848;-1.216;2022-10-16T01:18:18;7.78;;;0.90;;
36445;SDS011;22472;50.848;-1.216;2022-10-16T01:20:53;10.98;;;1.00;;
36445;SDS011;22472;50.848;-1.216;2022-10-16T01:23:27;7.57;;;1.02;;
36445;SDS011;22472;50.848;-1.216;2022-10-16T01:26:08;9.30;;;1.02;;
36445;SDS011;22472;50.848;-1.216;2022-10-16T01:28:45;9.57;;;0.82;;
36445;SDS011;22472;50.848;-1.216;2022-10-16T01:31:17;10.05;;;0.73;;
36445;SDS011;22472;50.848;-1.216;2022-10-16T01:33:47;10.45;;;1.17;;
36445;SDS011;22472;50.848;-1.216;2022-10-16T01:36:21;10.07;;;1.00;;
36445;SDS011;22472;50.848;-1.216;2022-10-16T01:38:52;15.07;;;1.60;;
36445;SDS011;22472;50.848;-1.216;2022-10-16T01:43:56;15.20;;;1.45;;
36445;SDS011;22472;50.848;-1.216;2022-10-16T01:46:27;11.23;;;1.40;;
36445;SDS011;22472;50.848;-1.216;2022-10-16T01:48:56;16.38;;;1.90;;
36445;SDS011;22472;50.848;-1.216;2022-10-16T01:51:25;16.13;;;1.80;;
36445;SDS011;22472;50.848;-1.216;2022-10-16T01:53:55;12.43;;;1.80;;
36445;SDS011;22472;50.848;-1.216;2022-10-16T01:56:25;15.90;;;1.90;;
36445;SDS011;22472;50.848;-1.216;2022-10-16T01:58:55;17.15;;;1.92;;
36445;SDS011;22472;50.848;-1.216;2022-10-16T02:01:26;15.55;;;1.95;;
36445;SDS011;22472;50.848;-1.216;2022-10-16T02:03:58;18.63;;;2.10;;
36445;SDS011;22472;50.848;-1.216;2022-10-16T02:06:31;16.13;;;2.25;;
36445;SDS011;22472;50.848;-1.216;2022-10-16T02:08:59;18.27;;;1.73;;
36445;SDS011;22472;50.848;-1.216;2022-10-16T02:11:26;15.02;;;1.98;;
36445;SDS011;22472;50.848;-1.216;2022-10-16T02:13:55;14.57;;;2.08;;
36445;SDS011;22472;50.848;-1.216;2022-10-16T02:16:32;15.30;;;1.90;;
36445;SDS011;22472;50.848;-1.216;2022-10-16T02:19:00;16.27;;;2.13;;
36445;SDS011;22472;50.848;-1.216;2022-10-16T02:21:28;15.05;;;1.90;;
36445;SDS011;22472;50.848;-1.216;2022-10-16T02:24:01;21.27;;;2.25;;
36445;SDS011;22472;50.848;-1.216;2022-10-16T02:26:31;17.90;;;2.40;;
36445;SDS011;22472;50.848;-1.216;2022-10-16T02:29:06;11.35;;;1.73;;
36445;SDS011;22472;50.848;-1.216;2022-10-16T02:31:38;17.25;;;2.25;;
36445;SDS011;22472;50.848;-1.216;2022-10-16T02:34:09;18.08;;;2.60;;
36445;SDS011;22472;50.848;-1.216;2022-10-16T02:36:38;20.65;;;2.30;;
36445;SDS011;22472;50.848;-1.216;2022-10-16T02:39:07;17.83;;;2.35;;
36445;SDS011;22472;50.848;-1.216;2022-10-16T02:41:34;18.27;;;2.58;;
36445;SDS011;22472;50.848;-1.216;2022-10-16T02:44:02;21.08;;;2.17;;
36445;SDS011;22472;50.848;-1.216;2022-10-16T02:46:30;15.25;;;2.05;;
36445;SDS011;22472;50.848;-1.216;2022-10-16T02:48:57;14.68;;;2.25;;
36445;SDS011;22472;50.848;-1.216;2022-10-16T02:51:24;20.45;;;2.40;;
36445;SDS011;22472;50.848;-1.216;2022-10-16T02:53:51;17.13;;;2.78;;
36445;SDS011;22472;50.848;-1.216;2022-10-16T02:56:18;21.92;;;2.25;;
36445;SDS011;22472;50.848;-1.216;2022-10-16T02:58:45;19.23;;;2.45;;
36445;SDS011;22472;50.848;-1.216;2022-10-16T03:01:12;17.25;;;2.47;;
36445;SDS011;22472;50.848;-1.216;2022-10-16T03:03:43;19.08;;;2.58;;
36445;SDS011;22472;50.848;-1.216;2022-10-16T03:06:10;20.05;;;2.58;;
36445;SDS011;22472;50.848;-1.216;2022-10-16T03:08:37;19.38;;;2.60;;
36445;SDS011;22472;50.848;-1.216;2022-10-16T03:11:04;21.58;;;2.50;;
36445;SDS011;22472;50.848;-1.216;2022-10-16T03:13:31;20.63;;;2.50;;
36445;SDS011;22472;50.848;-1.216;2022-10-16T03:15:58;20.42;;;2.53;;
36445;SDS011;22472;50.848;-1.216;2022-10-16T03:18:25;18.33;;;2.60;;
36445;SDS011;22472;50.848;-1.216;2022-10-16T03:20:53;18.55;;;2.05;;
36445;SDS011;22472;50.848;-1.216;2022-10-16T03:23:20;19.98;;;2.47;;
36445;SDS011;22472;50.848;-1.216;2022-10-16T03:25:47;23.80;;;2.70;;
36445;SDS011;22472;50.848;-1.216;2022-10-16T03:28:14;20.30;;;2.53;;
36445;SDS011;22472;50.848;-1.216;2022-10-16T03:30:42;20.10;;;2.90;;
36445;SDS011;22472;50.848;-1.216;2022-10-16T03:33:09;22.88;;;2.60;;
36445;SDS011;22472;50.848;-1.216;2022-10-16T03:35:36;17.75;;;2.70;;
36445;SDS011;22472;50.848;-1.216;2022-10-16T03:38:05;21.42;;;2.58;;
36445;SDS011;22472;50.848;-1.216;2022-10-16T03:40:32;22.35;;;2.85;;
36445;SDS011;22472;50.848;-1.216;2022-10-16T03:42:59;23.40;;;2.95;;
36445;SDS011;22472;50.848;-1.216;2022-10-16T03:45:26;28.08;;;3.10;;
36445;SDS011;22472;50.848;-1.216;2022-10-16T03:47:53;20.65;;;2.50;;
36445;SDS011;22472;50.848;-1.216;2022-10-16T03:50:20;18.80;;;2.65;;
36445;SDS011;22472;50.848;-1.216;2022-10-16T03:52:47;18.98;;;2.88;;
36445;SDS011;22472;50.848;-1.216;2022-10-16T03:55:15;19.40;;;2.85;;
36445;SDS011;22472;50.848;-1.216;2022-10-16T03:57:43;19.05;;;2.35;;
36445;SDS011;22472;50.848;-1.216;2022-10-16T04:00:10;20.02;;;2.47;;
36445;SDS011;22472;50.848;-1.216;2022-10-16T04:02:38;20.02;;;2.55;;
36445;SDS011;22472;50.848;-1.216;2022-10-16T04:05:06;18.08;;;3.00;;
36445;SDS011;22472;50.848;-1.216;2022-10-16T04:07:33;19.35;;;2.60;;
36445;SDS011;22472;50.848;-1.216;2022-10-16T04:10:00;23.48;;;2.83;;
36445;SDS011;22472;50.848;-1.216;2022-10-16T04:12:29;23.90;;;2.92;;
36445;SDS011;22472;50.848;-1.216;2022-10-16T04:14:56;15.80;;;2.38;;
36445;SDS011;22472;50.848;-1.216;2022-10-16T04:17:23;15.07;;;2.70;;
36445;SDS011;22472;50.848;-1.216;2022-10-16T04:19:50;22.05;;;2.75;;
36445;SDS011;22472;50.848;-1.216;2022-10-16T04:22:17;15.05;;;2.05;;
36445;SDS011;22472;50.848;-1.216;2022-10-16T04:24:44;14.30;;;2.03;;
36445;SDS011;22472;50.848;-1.216;2022-10-16T04:27:11;21.13;;;2.40;;
36445;SDS011;22472;50.848;-1.216;2022-10-16T04:29:39;15.82;;;2.65;;
36445;SDS011;22472;50.848;-1.216;2022-10-16T04:32:07;16.45;;;2.88;;
36445;SDS011;22472;50.848;-1.216;2022-10-16T04:34:34;15.90;;;2.95;;
36445;SDS011;22472;50.848;-1.216;2022-10-16T04:37:03;15.85;;;2.67;;
36445;SDS011;22472;50.848;-1.216;2022-10-16T04:39:30;18.98;;;2.97;;
36445;SDS011;22472;50.848;-1.216;2022-10-16T04:41:57;21.67;;;2.78;;
36445;SDS011;22472;50.848;-1.216;2022-10-16T04:44:24;17.38;;;2.90;;
36445;SDS011;22472;50.848;-1.216;2022-10-16T04:46:52;20.15;;;3.17;;
36445;SDS011;22472;50.848;-1.216;2022-10-16T04:49:19;20.13;;;2.67;;
36445;SDS011;22472;50.848;-1.216;2022-10-16T04:51:46;16.20;;;2.45;;
36445;SDS011;22472;50.848;-1.216;2022-10-16T04:54:13;17.13;;;2.65;;
36445;SDS011;22472;50.848;-1.216;2022-10-16T04:56:40;20.05;;;2.55;;
36445;SDS011;22472;50.848;-1.216;2022-10-16T04:59:12;14.85;;;2.45;;
36445;SDS011;22472;50.848;-1.216;2022-10-16T05:01:40;18.40;;;2.15;;
36445;SDS011;22472;50.848;-1.216;2022-10-16T05:04:08;19.63;;;2.22;;
36445;SDS011;22472;50.848;-1.216;2022-10-16T05:06:36;14.93;;;2.55;;
36445;SDS011;22472;50.848;-1.216;2022-10-16T05:09:03;21.95;;;2.63;;
36445;SDS011;22472;50.848;-1.216;2022-10-16T05:11:30;21.05;;;3.00;;
36445;SDS011;22472;50.848;-1.216;2022-10-16T05:13:58;17.85;;;3.17;;
36445;SDS011;22472;50.848;-1.216;2022-10-16T05:16:25;20.45;;;2.92;;
36445;SDS011;22472;50.848;-1.216;2022-10-16T05:18:52;14.82;;;2.25;;
36445;SDS011;22472;50.848;-1.216;2022-10-16T05:21:20;14.23;;;2.35;;
36445;SDS011;22472;50.848;-1.216;2022-10-16T05:23:48;18.27;;;2.30;;
36445;SDS011;22472;50.848;-1.216;2022-10-16T05:26:15;19.90;;;2.55;;
36445;SDS011;22472;50.848;-1.216;2022-10-16T05:28:42;22.45;;;2.80;;
36445;SDS011;22472;50.848;-1.216;2022-10-16T05:31:09;19.20;;;2.28;;
36445;SDS011;22472;50.848;-1.216;2022-10-16T05:33:36;24.73;;;2.58;;
36445;SDS011;22472;50.848;-1.216;2022-10-16T05:36:03;15.18;;;2.47;;
36445;SDS011;22472;50.848;-1.216;2022-10-16T05:38:34;18.90;;;2.38;;
36445;SDS011;22472;50.848;-1.216;2022-10-16T05:41:01;16.42;;;2.63;;
36445;SDS011;22472;50.848;-1.216;2022-10-16T05:43:29;13.82;;;2.10;;
36445;SDS011;22472;50.848;-1.216;2022-10-16T05:45:57;15.70;;;1.90;;
36445;SDS011;22472;50.848;-1.216;2022-10-16T05:48:25;18.65;;;2.40;;
36445;SDS011;22472;50.848;-1.216;2022-10-16T05:50:56;19.50;;;2.42;;
36445;SDS011;22472;50.848;-1.216;2022-10-16T05:53:24;18.65;;;2.53;;
36445;SDS011;22472;50.848;-1.216;2022-10-16T05:55:53;17.42;;;2.25;;
36445;SDS011;22472;50.848;-1.216;2022-10-16T05:58:20;22.05;;;2.85;;
36445;SDS011;22472;50.848;-1.216;2022-10-16T06:00:54;17.60;;;2.35;;
36445;SDS011;22472;50.848;-1.216;2022-10-16T06:03:21;16.30;;;2.08;;
36445;SDS011;22472;50.848;-1.216;2022-10-16T06:05:48;16.58;;;2.00;;
36445;SDS011;22472;50.848;-1.216;2022-10-16T06:08:16;19.75;;;2.42;;
36445;SDS011;22472;50.848;-1.216;2022-10-16T06:10:43;18.38;;;2.35;;
36445;SDS011;22472;50.848;-1.216;2022-10-16T06:13:11;13.50;;;1.83;;
36445;SDS011;22472;50.848;-1.216;2022-10-16T06:15:39;12.82;;;1.73;;
36445;SDS011;22472;50.848;-1.216;2022-10-16T06:18:08;16.42;;;2.00;;
36445;SDS011;22472;50.848;-1.216;2022-10-16T06:20:35;13.75;;;1.40;;
36445;SDS011;22472;50.848;-1.216;2022-10-16T06:23:02;15.68;;;1.75;;
36445;SDS011;22472;50.848;-1.216;2022-10-16T06:25:30;16.42;;;1.70;;
36445;SDS011;22472;50.848;-1.216;2022-10-16T06:27:57;11.63;;;1.67;;
36445;SDS011;22472;50.848;-1.216;2022-10-16T06:30:25;11.63;;;1.42;;
36445;SDS011;22472;50.848;-1.216;2022-10-16T06:32:52;16.17;;;1.60;;
36445;SDS011;22472;50.848;-1.216;2022-10-16T06:35:19;12.38;;;1.20;;
36445;SDS011;22472;50.848;-1.216;2022-10-16T06:37:46;14.98;;;1.73;;
36445;SDS011;22472;50.848;-1.216;2022-10-16T06:40:13;10.60;;;1.30;;
36445;SDS011;22472;50.848;-1.216;2022-10-16T06:42:40;12.38;;;1.45;;
36445;SDS011;22472;50.848;-1.216;2022-10-16T06:45:07;12.27;;;1.05;;
36445;SDS011;22472;50.848;-1.216;2022-10-16T06:47:36;15.18;;;1.83;;
36445;SDS011;22472;50.848;-1.216;2022-10-16T06:50:04;11.07;;;1.23;;
36445;SDS011;22472;50.848;-1.216;2022-10-16T06:52:32;14.63;;;1.50;;
36445;SDS011;22472;50.848;-1.216;2022-10-16T06:54:59;13.32;;;1.50;;
36445;SDS011;22472;50.848;-1.216;2022-10-16T06:57:26;9.95;;;1.05;;
36445;SDS011;22472;50.848;-1.216;2022-10-16T06:59:53;8.52;;;1.00;;
36445;SDS011;22472;50.848;-1.216;2022-10-16T07:02:20;12.82;;;1.33;;
36445;SDS011;22472;50.848;-1.216;2022-10-16T07:04:48;13.13;;;1.50;;
36445;SDS011;22472;50.848;-1.216;2022-10-16T07:07:15;8.27;;;1.27;;
36445;SDS011;22472;50.848;-1.216;2022-10-16T07:09:42;8.43;;;1.10;;
36445;SDS011;22472;50.848;-1.216;2022-10-16T07:12:09;10.00;;;1.52;;
36445;SDS011;22472;50.848;-1.216;2022-10-16T07:14:36;10.77;;;1.20;;
36445;SDS011;22472;50.848;-1.216;2022-10-16T07:17:03;8.20;;;1.15;;
36445;SDS011;22472;50.848;-1.216;2022-10-16T07:19:29;12.65;;;1.25;;
36445;SDS011;22472;50.848;-1.216;2022-10-16T07:21:58;9.88;;;1.60;;
36445;SDS011;22472;50.848;-1.216;2022-10-16T07:24:25;14.30;;;1.90;;
36445;SDS011;22472;50.848;-1.216;2022-10-16T07:26:52;15.63;;;1.95;;
36445;SDS011;22472;50.848;-1.216;2022-10-16T07:29:19;16.85;;;1.65;;
36445;SDS011;22472;50.848;-1.216;2022-10-16T07:31:47;14.80;;;1.83;;
36445;SDS011;22472;50.848;-1.216;2022-10-16T07:34:16;11.93;;;1.45;;
36445;SDS011;22472;50.848;-1.216;2022-10-16T07:36:44;12.60;;;1.85;;
36445;SDS011;22472;50.848;-1.216;2022-10-16T07:39:15;15.38;;;1.88;;
36445;SDS011;22472;50.848;-1.216;2022-10-16T07:41:42;12.40;;;1.70;;
36445;SDS011;22472;50.848;-1.216;2022-10-16T07:44:09;20.48;;;2.75;;
36445;SDS011;22472;50.848;-1.216;2022-10-16T07:46:36;17.30;;;2.38;;
36445;SDS011;22472;50.848;-1.216;2022-10-16T07:49:03;16.23;;;2.10;;
36445;SDS011;22472;50.848;-1.216;2022-10-16T07:51:30;17.55;;;2.40;;
36445;SDS011;22472;50.848;-1.216;2022-10-16T07:53:57;18.70;;;2.83;;
36445;SDS011;22472;50.848;-1.216;2022-10-16T07:56:25;15.68;;;2.13;;
36445;SDS011;22472;50.848;-1.216;2022-10-16T07:58:52;18.58;;;2.50;;
36445;SDS011;22472;50.848;-1.216;2022-10-16T08:01:21;16.10;;;2.38;;
36445;SDS011;22472;50.848;-1.216;2022-10-16T08:03:48;17.70;;;2.70;;
36445;SDS011;22472;50.848;-1.216;2022-10-16T08:06:16;17.73;;;2.42;;
36445;SDS011;22472;50.848;-1.216;2022-10-16T08:08:44;18.25;;;2.60;;
36445;SDS011;22472;50.848;-1.216;2022-10-16T08:11:11;15.05;;;2.60;;
36445;SDS011;22472;50.848;-1.216;2022-10-16T08:13:40;14.55;;;2.65;;
36445;SDS011;22472;50.848;-1.216;2022-10-16T08:16:07;21.10;;;2.70;;
36445;SDS011;22472;50.848;-1.216;2022-10-16T08:18:35;14.98;;;2.05;;
36445;SDS011;22472;50.848;-1.216;2022-10-16T08:21:02;16.05;;;2.65;;
36445;SDS011;22472;50.848;-1.216;2022-10-16T08:23:30;17.90;;;2.05;;
36445;SDS011;22472;50.848;-1.216;2022-10-16T08:26:01;10.90;;;1.55;;
36445;SDS011;22472;50.848;-1.216;2022-10-16T08:28:30;13.40;;;2.47;;
36445;SDS011;22472;50.848;-1.216;2022-10-16T08:31:05;17.75;;;2.63;;
36445;SDS011;22472;50.848;-1.216;2022-10-16T08:33:33;13.75;;;2.45;;
36445;SDS011;22472;50.848;-1.216;2022-10-16T08:36:01;15.82;;;2.50;;
36445;SDS011;22472;50.848;-1.216;2022-10-16T08:38:29;23.92;;;2.92;;
36445;SDS011;22472;50.848;-1.216;2022-10-16T08:40:57;14.23;;;2.30;;
36445;SDS011;22472;50.848;-1.216;2022-10-16T08:43:40;14.88;;;2.22;;
36445;SDS011;22472;50.848;-1.216;2022-10-16T08:46:23;16.83;;;2.60;;
36445;SDS011;22472;50.848;-1.216;2022-10-16T08:49:00;14.40;;;2.20;;
36445;SDS011;22472;50.848;-1.216;2022-10-16T08:51:29;12.07;;;2.00;;
36445;SDS011;22472;50.848;-1.216;2022-10-16T08:53:59;21.40;;;2.80;;
36445;SDS011;22472;50.848;-1.216;2022-10-16T08:56:29;16.15;;;2.20;;
36445;SDS011;22472;50.848;-1.216;2022-10-16T08:58:57;16.15;;;2.38;;
36445;SDS011;22472;50.848;-1.216;2022-10-16T09:01:29;18.10;;;2.60;;
36445;SDS011;22472;50.848;-1.216;2022-10-16T09:04:09;15.60;;;1.88;;
36445;SDS011;22472;50.848;-1.216;2022-10-16T09:07:02;17.65;;;2.70;;
36445;SDS011;22472;50.848;-1.216;2022-10-16T09:09:38;19.20;;;2.40;;
36445;SDS011;22472;50.848;-1.216;2022-10-16T09:12:17;17.17;;;1.98;;
36445;SDS011;22472;50.848;-1.216;2022-10-16T09:14:52;17.10;;;2.17;;
36445;SDS011;22472;50.848;-1.216;2022-10-16T09:17:37;16.83;;;1.95;;
36445;SDS011;22472;50.848;-1.216;2022-10-16T09:20:18;13.23;;;2.00;;
36445;SDS011;22472;50.848;-1.216;2022-10-16T09:22:53;15.75;;;1.92;;
36445;SDS011;22472;50.848;-1.216;2022-10-16T09:25:26;13.02;;;2.03;;
36445;SDS011;22472;50.848;-1.216;2022-10-16T09:27:54;13.57;;;1.98;;
36445;SDS011;22472;50.848;-1.216;2022-10-16T09:30:21;13.45;;;1.70;;
36445;SDS011;22472;50.848;-1.216;2022-10-16T09:32:53;11.23;;;2.00;;
36445;SDS011;22472;50.848;-1.216;2022-10-16T09:35:25;10.00;;;1.65;;
36445;SDS011;22472;50.848;-1.216;2022-10-16T09:37:57;12.85;;;1.77;;
36445;SDS011;22472;50.848;-1.216;2022-10-16T09:40:25;14.15;;;2.10;;
36445;SDS011;22472;50.848;-1.216;2022-10-16T09:42:58;12.48;;;1.58;;
36445;SDS011;22472;50.848;-1.216;2022-10-16T09:45:32;11.38;;;1.58;;
36445;SDS011;22472;50.848;-1.216;2022-10-16T09:48:02;11.63;;;1.58;;
36445;SDS011;22472;50.848;-1.216;2022-10-16T09:50:37;10.80;;;1.50;;
36445;SDS011;22472;50.848;-1.216;2022-10-16T09:53:05;8.25;;;1.67;;
36445;SDS011;22472;50.848;-1.216;2022-10-16T09:55:36;12.35;;;1.70;;
36445;SDS011;22472;50.848;-1.216;2022-10-16T09:58:14;16.02;;;1.60;;
36445;SDS011;22472;50.848;-1.216;2022-10-16T10:00:41;12.27;;;1.98;;
36445;SDS011;22472;50.848;-1.216;2022-10-16T10:03:32;9.13;;;1.50;;
36445;SDS011;22472;50.848;-1.216;2022-10-16T10:06:04;15.27;;;1.85;;
36445;SDS011;22472;50.848;-1.216;2022-10-16T10:08:41;18.13;;;2.28;;
36445;SDS011;22472;50.848;-1.216;2022-10-16T10:11:18;11.93;;;2.08;;
36445;SDS011;22472;50.848;-1.216;2022-10-16T10:14:05;10.43;;;1.63;;
36445;SDS011;22472;50.848;-1.216;2022-10-16T10:16:35;13.68;;;1.92;;
36445;SDS011;22472;50.848;-1.216;2022-10-16T10:19:03;10.88;;;1.73;;
36445;SDS011;22472;50.848;-1.216;2022-10-16T10:21:32;11.45;;;2.10;;
36445;SDS011;22472;50.848;-1.216;2022-10-16T10:23:59;12.30;;;2.13;;
36445;SDS011;22472;50.848;-1.216;2022-10-16T10:26:27;14.48;;;1.80;;
36445;SDS011;22472;50.848;-1.216;2022-10-16T10:28:59;11.25;;;1.60;;
36445;SDS011;22472;50.848;-1.216;2022-10-16T10:31:38;13.10;;;2.08;;
36445;SDS011;22472;50.848;-1.216;2022-10-16T10:34:17;10.88;;;1.73;;
36445;SDS011;22472;50.848;-1.216;2022-10-16T10:36:59;15.05;;;2.03;;
36445;SDS011;22472;50.848;-1.216;2022-10-16T10:39:32;12.68;;;1.52;;
36445;SDS011;22472;50.848;-1.216;2022-10-16T10:42:09;8.77;;;1.60;;
36445;SDS011;22472;50.848;-1.216;2022-10-16T10:44:53;13.55;;;1.67;;
36445;SDS011;22472;50.848;-1.216;2022-10-16T10:47:39;10.23;;;1.65;;
36445;SDS011;22472;50.848;-1.216;2022-10-16T10:50:19;14.63;;;1.80;;
36445;SDS011;22472;50.848;-1.216;2022-10-16T10:52:58;8.65;;;1.40;;
36445;SDS011;22472;50.848;-1.216;2022-10-16T10:55:36;16.23;;;1.75;;
36445;SDS011;22472;50.848;-1.216;2022-10-16T10:58:10;9.85;;;1.63;;
36445;SDS011;22472;50.848;-1.216;2022-10-16T11:01:01;10.57;;;1.55;;
36445;SDS011;22472;50.848;-1.216;2022-10-16T11:06:28;7.63;;;1.40;;
36445;SDS011;22472;50.848;-1.216;2022-10-16T11:09:06;11.88;;;2.00;;
36445;SDS011;22472;50.848;-1.216;2022-10-16T11:11:40;11.82;;;1.52;;
36445;SDS011;22472;50.848;-1.216;2022-10-16T11:14:13;9.93;;;1.60;;
36445;SDS011;22472;50.848;-1.216;2022-10-16T11:16:43;9.95;;;1.30;;
36445;SDS011;22472;50.848;-1.216;2022-10-16T11:19:14;9.60;;;1.30;;
36445;SDS011;22472;50.848;-1.216;2022-10-16T11:21:54;9.95;;;1.33;;
36445;SDS011;22472;50.848;-1.216;2022-10-16T11:24:29;10.13;;;1.30;;
36445;SDS011;22472;50.848;-1.216;2022-10-16T11:27:07;11.60;;;1.23;;
36445;SDS011;22472;50.848;-1.216;2022-10-16T11:29:44;7.50;;;1.02;;
36445;SDS011;22472;50.848;-1.216;2022-10-16T11:32:18;8.25;;;1.08;;
36445;SDS011;22472;50.848;-1.216;2022-10-16T11:34:49;9.05;;;1.17;;
36445;SDS011;22472;50.848;-1.216;2022-10-16T11:37:24;8.77;;;1.10;;
36445;SDS011;22472;50.848;-1.216;2022-10-16T11:39:57;8.55;;;0.77;;
36445;SDS011;22472;50.848;-1.216;2022-10-16T11:42:30;7.32;;;0.90;;
36445;SDS011;22472;50.848;-1.216;2022-10-16T11:45:07;10.38;;;1.15;;
36445;SDS011;22472;50.848;-1.216;2022-10-16T11:47:48;8.57;;;1.20;;
36445;SDS011;22472;50.848;-1.216;2022-10-16T11:50:22;7.80;;;1.00;;
36445;SDS011;22472;50.848;-1.216;2022-10-16T11:52:57;12.68;;;1.13;;
36445;SDS011;22472;50.848;-1.216;2022-10-16T11:55:31;7.72;;;1.00;;
36445;SDS011;22472;50.848;-1.216;2022-10-16T11:58:02;8.55;;;1.30;;
36445;SDS011;22472;50.848;-1.216;2022-10-16T12:00:35;12.90;;;1.50;;
36445;SDS011;22472;50.848;-1.216;2022-10-16T12:03:10;9.95;;;1.00;;
36445;SDS011;22472;50.848;-1.216;2022-10-16T12:05:48;10.60;;;1.38;;
36445;SDS011;22472;50.848;-1.216;2022-10-16T12:08:25;8.80;;;1.42;;
36445;SDS011;22472;50.848;-1.216;2022-10-16T12:10:53;8.60;;;1.42;;
36445;SDS011;22472;50.848;-1.216;2022-10-16T12:13:33;8.95;;;1.10;;
36445;SDS011;22472;50.848;-1.216;2022-10-16T12:16:05;12.73;;;1.45;;
36445;SDS011;22472;50.848;-1.216;2022-10-16T12:18:45;11.75;;;1.40;;
36445;SDS011;22472;50.848;-1.216;2022-10-16T12:21:13;11.57;;;1.20;;
36445;SDS011;22472;50.848;-1.216;2022-10-16T12:23:48;11.40;;;1.50;;
36445;SDS011;22472;50.848;-1.216;2022-10-16T12:26:23;11.07;;;1.38;;
36445;SDS011;22472;50.848;-1.216;2022-10-16T12:28:51;9.68;;;1.20;;
36445;SDS011;22472;50.848;-1.216;2022-10-16T12:31:19;8.45;;;1.50;;
36445;SDS011;22472;50.848;-1.216;2022-10-16T12:33:53;10.77;;;1.50;;
36445;SDS011;22472;50.848;-1.216;2022-10-16T12:36:27;11.98;;;1.60;;
36445;SDS011;22472;50.848;-1.216;2022-10-16T12:38:57;13.25;;;1.52;;
36445;SDS011;22472;50.848;-1.216;2022-10-16T12:41:26;9.23;;;1.52;;
36445;SDS011;22472;50.848;-1.216;2022-10-16T12:43:54;11.35;;;1.70;;
36445;SDS011;22472;50.848;-1.216;2022-10-16T12:46:23;8.02;;;1.25;;
36445;SDS011;22472;50.848;-1.216;2022-10-16T12:49:20;13.93;;;1.55;;
36445;SDS011;22472;50.848;-1.216;2022-10-16T12:51:55;13.00;;;2.03;;
36445;SDS011;22472;50.848;-1.216;2022-10-16T12:54:25;10.63;;;1.45;;
36445;SDS011;22472;50.848;-1.216;2022-10-16T12:57:04;12.00;;;1.95;;
36445;SDS011;22472;50.848;-1.216;2022-10-16T12:59:44;10.63;;;1.55;;
36445;SDS011;22472;50.848;-1.216;2022-10-16T13:02:24;13.23;;;1.50;;
36445;SDS011;22472;50.848;-1.216;2022-10-16T13:05:19;13.55;;;1.77;;
36445;SDS011;22472;50.848;-1.216;2022-10-16T13:07:57;12.35;;;1.70;;
36445;SDS011;22472;50.848;-1.216;2022-10-16T13:10:35;12.57;;;1.75;;
36445;SDS011;22472;50.848;-1.216;2022-10-16T13:13:21;15.00;;;1.63;;
36445;SDS011;22472;50.848;-1.216;2022-10-16T13:16:12;11.82;;;1.80;;
36445;SDS011;22472;50.848;-1.216;2022-10-16T13:18:49;13.45;;;1.77;;
36445;SDS011;22472;50.848;-1.216;2022-10-16T13:21:28;11.02;;;2.08;;
36445;SDS011;22472;50.848;-1.216;2022-10-16T13:24:02;11.63;;;1.80;;
36445;SDS011;22472;50.848;-1.216;2022-10-16T13:26:43;11.65;;;1.98;;
36445;SDS011;22472;50.848;-1.216;2022-10-16T13:29:17;16.42;;;2.15;;
36445;SDS011;22472;50.848;-1.216;2022-10-16T13:31:46;15.30;;;1.90;;
36445;SDS011;22472;50.848;-1.216;2022-10-16T13:34:14;11.35;;;2.05;;
36445;SDS011;22472;50.848;-1.216;2022-10-16T13:36:45;16.98;;;2.38;;
36445;SDS011;22472;50.848;-1.216;2022-10-16T13:39:16;13.05;;;1.77;;
36445;SDS011;22472;50.848;-1.216;2022-10-16T13:42:00;15.27;;;1.73;;
36445;SDS011;22472;50.848;-1.216;2022-10-16T13:44:28;13.85;;;2.20;;
36445;SDS011;22472;50.848;-1.216;2022-10-16T13:47:03;13.45;;;1.65;;
36445;SDS011;22472;50.848;-1.216;2022-10-16T13:49:30;10.40;;;1.55;;
36445;SDS011;22472;50.848;-1.216;2022-10-16T13:51:57;13.05;;;1.45;;
36445;SDS011;22472;50.848;-1.216;2022-10-16T13:54:26;14.85;;;1.95;;
36445;SDS011;22472;50.848;-1.216;2022-10-16T13:56:54;13.20;;;1.58;;
36445;SDS011;22472;50.848;-1.216;2022-10-16T13:59:24;12.38;;;1.67;;
36445;SDS011;22472;50.848;-1.216;2022-10-16T14:01:52;6.85;;;1.30;;
36445;SDS011;22472;50.848;-1.216;2022-10-16T14:04:22;14.85;;;1.80;;
36445;SDS011;22472;50.848;-1.216;2022-10-16T14:06:50;9.60;;;1.15;;
36445;SDS011;22472;50.848;-1.216;2022-10-16T14:09:20;12.18;;;1.58;;
36445;SDS011;22472;50.848;-1.216;2022-10-16T14:11:50;12.32;;;1.30;;
36445;SDS011;22472;50.848;-1.216;2022-10-16T14:14:20;9.57;;;1.35;;
36445;SDS011;22472;50.848;-1.216;2022-10-16T14:16:49;11.95;;;1.10;;
36445;SDS011;22472;50.848;-1.216;2022-10-16T14:19:18;10.93;;;1.42;;
36445;SDS011;22472;50.848;-1.216;2022-10-16T14:21:48;10.63;;;1.27;;
36445;SDS011;22472;50.848;-1.216;2022-10-16T14:24:22;8.43;;;1.10;;
36445;SDS011;22472;50.848;-1.216;2022-10-16T14:26:52;11.05;;;0.93;;
36445;SDS011;22472;50.848;-1.216;2022-10-16T14:29:21;7.80;;;1.10;;
36445;SDS011;22472;50.848;-1.216;2022-10-16T14:31:58;8.00;;;1.02;;
36445;SDS011;22472;50.848;-1.216;2022-10-16T14:34:27;12.98;;;1.60;;
36445;SDS011;22472;50.848;-1.216;2022-10-16T14:36:58;11.60;;;1.27;;
36445;SDS011;22472;50.848;-1.216;2022-10-16T14:39:29;8.27;;;1.10;;
36445;SDS011;22472;50.848;-1.216;2022-10-16T14:41:56;8.65;;;1.00;;
36445;SDS011;22472;50.848;-1.216;2022-10-16T14:44:27;7.25;;;1.27;;
36445;SDS011;22472;50.848;-1.216;2022-10-16T14:47:05;15.82;;;1.60;;
36445;SDS011;22472;50.848;-1.216;2022-10-16T14:49:35;13.60;;;1.60;;